Time;durP1;ratioP1;P1;durP2;ratioP2;P2;SDS_P1;SDS_P2;PMS_P1;PMS_P2;Temp;Humidity;BMP_temperature;BMP_pressure;BME280_temperature;BME280_humidity;BME280_pressure;Samples;Min_cycle;Max_cycle;Signal;HPM_P1;HPM_P2
2021/04/10 00:00:34;;;;;;;19.03;15.23;;;8.10;99.90;;;;;;4974066;28;20176;-76
2021/04/10 00:03:00;;;;;;;19.83;15.73;;;8.10;99.90;;;;;;4974056;28;20207;-76
2021/04/10 00:05:28;;;;;;;22.87;16.37;;;8.10;99.90;;;;;;4973679;28;20220;-76
2021/04/10 00:07:54;;;;;;;23.70;16.52;;;8.10;99.90;;;;;;4974185;28;20286;-77
2021/04/10 00:10:23;;;;;;;21.55;16.00;;;8.10;99.90;;;;;;4974210;28;20186;-76
2021/04/10 00:12:48;;;;;;;22.20;16.70;;;8.10;99.90;;;;;;4974446;28;20186;-77
2021/04/10 00:15:16;;;;;;;22.50;16.30;;;8.20;99.90;;;;;;4973592;28;20180;-78
2021/04/10 00:17:42;;;;;;;22.65;16.60;;;8.20;99.90;;;;;;4974012;28;20191;-76
2021/04/10 00:20:11;;;;;;;19.08;14.77;;;8.10;99.90;;;;;;4973971;28;20533;-76
2021/04/10 00:22:37;;;;;;;19.58;15.80;;;8.20;99.90;;;;;;4974730;28;20192;-77
2021/04/10 00:25:04;;;;;;;33.90;17.50;;;8.20;99.90;;;;;;4977279;28;20600;-78
2021/04/10 00:27:29;;;;;;;27.58;17.15;;;8.20;99.90;;;;;;4977729;28;20187;-76
2021/04/10 00:29:55;;;;;;;21.63;16.23;;;8.20;99.90;;;;;;4977809;28;20280;-77
2021/04/10 00:32:21;;;;;;;21.50;16.73;;;8.20;99.90;;;;;;4977838;28;20176;-76
2021/04/10 00:34:47;;;;;;;21.03;16.40;;;8.10;99.90;;;;;;4977353;28;20181;-77
2021/04/10 00:37:12;;;;;;;22.67;16.13;;;8.10;99.90;;;;;;4977522;28;20298;-76
2021/04/10 00:39:38;;;;;;;20.30;16.03;;;8.00;99.90;;;;;;4977549;28;20824;-77
2021/04/10 00:42:04;;;;;;;19.90;15.77;;;8.10;99.90;;;;;;4977683;28;20291;-77
2021/04/10 00:44:29;;;;;;;23.35;16.13;;;8.10;99.90;;;;;;4977440;28;20176;-77
2021/04/10 00:46:55;;;;;;;23.30;16.47;;;8.10;99.90;;;;;;4977619;28;20227;-76
2021/04/10 00:49:21;;;;;;;24.17;17.53;;;8.10;99.90;;;;;;5008811;28;20195;-77
2021/04/10 00:51:46;;;;;;;21.73;16.33;;;8.20;99.90;;;;;;4977459;28;20680;-78
2021/04/10 00:54:12;;;;;;;22.40;17.20;;;8.20;99.90;;;;;;5008513;28;20176;-76
2021/04/10 00:56:38;;;;;;;24.03;16.50;;;8.10;99.90;;;;;;4976860;28;20246;-78
2021/04/10 00:59:03;;;;;;;23.87;16.50;;;8.10;99.90;;;;;;4977328;28;20212;-76
2021/04/10 01:01:29;;;;;;;22.60;16.10;;;8.00;99.90;;;;;;4977390;28;20260;-79
2021/04/10 01:03:55;;;;;;;25.27;17.33;;;7.90;99.90;;;;;;4977211;28;20259;-76
2021/04/10 01:06:20;;;;;;;23.87;17.17;;;8.00;99.90;;;;;;4976605;28;20640;-77
2021/04/10 01:08:46;;;;;;;24.40;17.75;;;8.00;99.90;;;;;;4977169;28;20638;-76
2021/04/10 01:11:31;;;;;;;21.57;16.67;;;8.00;99.90;;;;;;4977131;28;20259;-77
2021/04/10 01:14:07;;;;;;;23.30;18.08;;;7.90;99.90;;;;;;4977160;28;20549;-77
2021/04/10 01:16:39;;;;;;;23.30;17.95;;;8.00;99.90;;;;;;4976653;28;20192;-77
2021/04/10 01:19:55;;;;;;;24.63;18.52;;;8.10;99.90;;;;;;4976859;28;20207;-77
2021/04/10 01:22:44;;;;;;;23.50;18.35;;;8.00;99.90;;;;;;4986242;28;20599;-78
2021/04/10 01:25:28;;;;;;;28.13;17.65;;;8.00;99.90;;;;;;4976363;28;20203;-76
2021/04/10 01:27:57;;;;;;;25.90;19.23;;;8.00;99.90;;;;;;4976667;28;20187;-77
2021/04/10 01:30:24;;;;;;;28.80;18.73;;;8.00;99.90;;;;;;4976641;28;20231;-78
2021/04/10 01:33:05;;;;;;;26.05;19.65;;;8.00;99.90;;;;;;4976276;28;20180;-76
2021/04/10 01:35:37;;;;;;;26.42;21.05;;;8.00;99.90;;;;;;4975798;28;20676;-77
2021/04/10 01:38:08;;;;;;;29.23;20.60;;;8.00;99.90;;;;;;4976534;28;20236;-77
2021/04/10 01:40:35;;;;;;;26.70;20.52;;;8.10;99.90;;;;;;4975220;28;20533;-76
2021/04/10 01:43:02;;;;;;;31.65;19.92;;;8.10;99.90;;;;;;5007786;28;20548;-76
2021/04/10 01:45:29;;;;;;;27.23;19.15;;;8.00;99.90;;;;;;4975955;28;20211;-78
2021/04/10 01:48:01;;;;;;;25.42;19.50;;;8.00;99.90;;;;;;4975124;28;20619;-78
2021/04/10 01:50:27;;;;;;;25.48;19.70;;;8.00;99.90;;;;;;4976686;28;20211;-77
2021/04/10 01:52:55;;;;;;;27.80;20.70;;;7.90;99.90;;;;;;4976407;28;20185;-78
2021/04/10 01:55:22;;;;;;;24.17;20.08;;;7.80;99.90;;;;;;4975891;28;20669;-78
2021/04/10 01:57:49;;;;;;;26.42;18.85;;;7.80;99.90;;;;;;4974970;28;20238;-76
2021/04/10 02:00:17;;;;;;;28.30;20.35;;;7.80;99.90;;;;;;4976285;28;20180;-77
2021/04/10 02:02:44;;;;;;;24.08;20.35;;;7.70;99.90;;;;;;4976052;28;20176;-76
2021/04/10 02:05:13;;;;;;;29.73;19.55;;;7.70;99.90;;;;;;4975616;28;20638;-77
2021/04/10 02:07:42;;;;;;;24.25;20.25;;;7.70;99.90;;;;;;4975906;28;20254;-77
2021/04/10 02:10:09;;;;;;;29.58;22.10;;;7.80;99.90;;;;;;4975779;28;20251;-79
2021/04/10 02:12:34;;;;;;;31.13;19.27;;;7.90;99.90;;;;;;4976043;28;20176;-79
2021/04/10 02:15:01;;;;;;;26.37;20.23;;;7.90;99.90;;;;;;4975694;28;20215;-79
2021/04/10 02:17:28;;;;;;;30.58;22.80;;;7.90;99.90;;;;;;5007159;28;20258;-79
2021/04/10 02:19:55;;;;;;;30.83;20.95;;;7.90;99.90;;;;;;4975650;28;20207;-79
2021/04/10 02:22:22;;;;;;;34.33;24.52;;;7.90;99.90;;;;;;4975648;28;20195;-76
2021/04/10 02:24:48;;;;;;;29.05;22.42;;;7.90;99.90;;;;;;4975341;28;20180;-78
2021/04/10 02:27:14;;;;;;;34.35;21.77;;;7.90;99.90;;;;;;4975606;28;20199;-78
2021/04/10 02:29:40;;;;;;;30.60;21.77;;;7.90;99.90;;;;;;4975645;28;20539;-77
2021/04/10 02:32:08;;;;;;;30.40;22.83;;;7.90;99.90;;;;;;4975365;28;20450;-79
2021/04/10 02:34:41;;;;;;;27.08;19.58;;;7.90;99.90;;;;;;4973926;28;20600;-77
2021/04/10 02:37:07;;;;;;;28.33;21.75;;;7.90;99.90;;;;;;4975590;28;20196;-79
2021/04/10 02:39:35;;;;;;;27.95;21.52;;;7.80;99.90;;;;;;4975452;28;20247;-78
2021/04/10 02:42:03;;;;;;;30.63;21.70;;;7.80;99.90;;;;;;4975476;28;20577;-77
2021/04/10 02:44:35;;;;;;;32.78;23.52;;;7.80;99.90;;;;;;4975061;28;20168;-77
2021/04/10 02:47:06;;;;;;;34.78;24.50;;;7.80;99.90;;;;;;4975444;28;20227;-78
2021/04/10 02:49:34;;;;;;;30.15;23.90;;;7.80;99.90;;;;;;4975426;28;20180;-76
2021/04/10 02:52:01;;;;;;;27.83;22.67;;;7.70;99.90;;;;;;4975242;28;20179;-79
2021/04/10 02:54:36;;;;;;;33.28;24.38;;;7.70;99.90;;;;;;4975090;28;20576;-77
2021/04/10 02:57:10;;;;;;;36.22;24.85;;;7.70;99.90;;;;;;4975060;28;20249;-78
2021/04/10 02:59:41;;;;;;;37.15;24.85;;;7.70;99.90;;;;;;4975184;28;20284;-78
2021/04/10 03:02:09;;;;;;;29.20;24.05;;;7.60;99.90;;;;;;4975003;28;20175;-78
2021/04/10 03:04:35;;;;;;;40.65;24.33;;;7.60;99.90;;;;;;4974910;28;20180;-77
2021/04/10 03:07:04;;;;;;;32.42;23.42;;;7.60;99.90;;;;;;4975095;28;20220;-78
2021/04/10 03:09:31;;;;;;;35.25;23.30;;;7.60;99.90;;;;;;4973548;28;20267;-78
2021/04/10 03:11:57;;;;;;;33.38;23.75;;;7.60;99.90;;;;;;4975145;28;20596;-77
2021/04/10 03:14:23;;;;;;;31.25;21.77;;;7.60;99.90;;;;;;4973577;28;20184;-78
2021/04/10 03:16:49;;;;;;;30.53;24.80;;;7.60;99.90;;;;;;4974544;28;20302;-78
2021/04/10 03:19:15;;;;;;;32.67;22.95;;;7.50;99.90;;;;;;4974753;28;20543;-77
2021/04/10 03:21:41;;;;;;;28.55;23.88;;;7.40;99.90;;;;;;4974720;28;20645;-79
2021/04/10 03:24:08;;;;;;;28.87;23.10;;;7.30;99.90;;;;;;4973369;28;20231;-79
2021/04/10 03:26:34;;;;;;;32.35;23.00;;;7.10;99.90;;;;;;4974382;28;20286;-77
2021/04/10 03:29:02;;;;;;;32.72;22.90;;;7.10;99.90;;;;;;4974736;28;20172;-78
2021/04/10 03:31:28;;;;;;;34.45;23.27;;;7.10;99.90;;;;;;4974447;28;20180;-78
2021/04/10 03:33:54;;;;;;;38.08;23.75;;;7.10;99.90;;;;;;4973243;28;20184;-77
2021/04/10 03:36:20;;;;;;;33.37;23.50;;;7.10;99.90;;;;;;4972774;28;20575;-78
2021/04/10 03:38:47;;;;;;;27.95;22.70;;;7.10;99.90;;;;;;4974314;28;20232;-78
2021/04/10 03:41:13;;;;;;;38.40;25.83;;;7.20;99.90;;;;;;4974481;28;20264;-78
2021/04/10 03:43:39;;;;;;;32.07;20.93;;;7.20;99.90;;;;;;4973209;28;20215;-78
2021/04/10 03:46:04;;;;;;;29.83;23.02;;;7.10;99.90;;;;;;4989026;28;20440;-77
2021/04/10 03:48:31;;;;;;;31.30;22.20;;;7.10;99.90;;;;;;4974573;28;20207;-79
2021/04/10 03:50:57;;;;;;;35.20;22.70;;;7.10;99.90;;;;;;4974214;28;20176;-77
2021/04/10 03:53:23;;;;;;;33.55;22.38;;;7.00;99.90;;;;;;4974330;28;20188;-78
2021/04/10 03:55:48;;;;;;;32.90;23.57;;;7.00;99.90;;;;;;4974341;28;20575;-78
2021/04/10 03:58:14;;;;;;;31.97;22.30;;;6.90;99.90;;;;;;4980327;28;20298;-77
2021/04/10 04:00:40;;;;;;;29.70;21.60;;;6.90;99.90;;;;;;4980767;28;20187;-77
2021/04/10 04:03:06;;;;;;;29.93;22.33;;;6.90;99.90;;;;;;4979547;28;20190;-77
2021/04/10 04:05:31;;;;;;;30.07;22.67;;;6.90;99.90;;;;;;5011595;28;20216;-77
2021/04/10 04:07:57;;;;;;;33.53;23.50;;;6.80;99.90;;;;;;4980638;28;20238;-77
2021/04/10 04:10:24;;;;;;;28.93;20.90;;;6.80;99.90;;;;;;4980675;28;20183;-78
2021/04/10 04:12:49;;;;;;;35.88;23.33;;;6.80;99.90;;;;;;4980484;28;20423;-77
2021/04/10 04:15:15;;;;;;;30.33;22.10;;;6.80;99.90;;;;;;4980177;28;20663;-78
2021/04/10 04:17:41;;;;;;;27.65;20.70;;;6.80;99.90;;;;;;4980529;28;20415;-77
2021/04/10 04:20:08;;;;;;;31.63;22.70;;;6.80;99.90;;;;;;4979281;28;20180;-77
2021/04/10 04:22:34;;;;;;;31.40;23.95;;;6.80;99.90;;;;;;4980594;28;20183;-77
2021/04/10 04:24:59;;;;;;;31.10;21.10;;;6.70;99.90;;;;;;4980052;28;20176;-78
2021/04/10 04:27:25;;;;;;;27.30;22.03;;;6.70;99.90;;;;;;4995446;28;20472;-78
2021/04/10 04:29:53;;;;;;;32.10;23.53;;;6.70;99.90;;;;;;5011952;28;20187;-77
2021/04/10 04:32:20;;;;;;;25.58;21.02;;;6.70;99.90;;;;;;4979486;28;20217;-78
2021/04/10 04:34:46;;;;;;;31.88;23.08;;;6.70;99.90;;;;;;4980110;28;20723;-79
2021/04/10 04:37:12;;;;;;;32.58;22.38;;;6.70;99.90;;;;;;4980114;28;20234;-77
2021/04/10 04:39:37;;;;;;;28.67;21.70;;;6.70;99.90;;;;;;4980203;28;20691;-78
2021/04/10 04:42:03;;;;;;;32.07;23.57;;;6.70;99.90;;;;;;4995598;28;20213;-78
2021/04/10 04:44:29;;;;;;;31.30;22.30;;;6.70;99.90;;;;;;4980541;28;20176;-78
2021/04/10 04:46:55;;;;;;;36.83;24.30;;;6.60;99.90;;;;;;4979887;28;20192;-78
2021/04/10 04:49:20;;;;;;;37.50;22.40;;;6.60;99.90;;;;;;4980417;28;20180;-77
2021/04/10 04:51:46;;;;;;;37.63;24.23;;;6.60;99.90;;;;;;4980296;28;20180;-79
2021/04/10 04:54:12;;;;;;;40.03;25.83;;;6.60;99.90;;;;;;4980656;28;20193;-79
2021/04/10 04:56:37;;;;;;;33.50;24.70;;;6.60;99.90;;;;;;4979961;28;20207;-78
2021/04/10 04:59:03;;;;;;;34.27;25.03;;;6.60;99.90;;;;;;4980164;28;20295;-77
2021/04/10 05:01:29;;;;;;;39.00;24.33;;;6.60;99.90;;;;;;4980197;28;20176;-78
2021/04/10 05:03:54;;;;;;;29.63;24.83;;;6.60;99.90;;;;;;4980271;28;20184;-78
2021/04/10 05:06:20;;;;;;;34.47;21.70;;;6.60;99.90;;;;;;5010934;28;20218;-78
2021/04/10 05:08:45;;;;;;;33.67;23.20;;;6.60;99.90;;;;;;5009810;28;20216;-77
2021/04/10 05:11:11;;;;;;;31.67;23.00;;;6.70;99.90;;;;;;4977159;28;20517;-77
2021/04/10 05:13:37;;;;;;;31.10;22.97;;;6.70;99.90;;;;;;4977283;28;20645;-77
2021/04/10 05:16:03;;;;;;;35.67;23.93;;;6.70;99.90;;;;;;4983918;28;20286;-79
2021/04/10 05:18:28;;;;;;;28.60;23.43;;;6.70;99.90;;;;;;4977044;28;20234;-78
2021/04/10 05:20:54;;;;;;;29.40;22.53;;;6.60;99.90;;;;;;4976865;28;20427;-77
2021/04/10 05:23:21;;;;;;;29.40;23.50;;;6.60;99.90;;;;;;4980143;28;20188;-78
2021/04/10 05:25:47;;;;;;;31.63;22.45;;;6.60;99.90;;;;;;4995968;28;20203;-79
2021/04/10 05:28:12;;;;;;;28.85;23.27;;;6.60;99.90;;;;;;4996240;28;20563;-78
2021/04/10 05:30:39;;;;;;;31.67;22.20;;;6.60;99.90;;;;;;4994993;28;20265;-79
2021/04/10 05:33:05;;;;;;;31.55;22.65;;;6.70;99.90;;;;;;4996148;28;20593;-78
2021/04/10 05:35:30;;;;;;;35.90;24.10;;;6.70;99.90;;;;;;4995474;28;20199;-78
2021/04/10 05:37:56;;;;;;;34.40;24.70;;;6.70;99.90;;;;;;4995994;28;20183;-78
2021/04/10 05:40:22;;;;;;;34.60;25.27;;;6.70;99.90;;;;;;4996084;28;20188;-78
2021/04/10 05:42:47;;;;;;;32.10;25.03;;;6.80;99.90;;;;;;4995926;28;20179;-79
2021/04/10 05:45:13;;;;;;;30.70;24.60;;;6.80;99.90;;;;;;4995521;28;20175;-78
2021/04/10 05:47:40;;;;;;;33.53;25.13;;;6.80;99.90;;;;;;4995884;28;20225;-78
2021/04/10 05:50:06;;;;;;;30.38;24.55;;;6.80;99.90;;;;;;4994663;28;20207;-78
2021/04/10 05:52:33;;;;;;;35.28;25.85;;;6.80;99.90;;;;;;4995802;28;20183;-79
2021/04/10 05:54:59;;;;;;;30.20;24.60;;;6.80;99.90;;;;;;4995400;28;20183;-79
2021/04/10 05:57:24;;;;;;;32.77;25.73;;;6.80;99.90;;;;;;4994049;28;20298;-80
2021/04/10 05:59:50;;;;;;;33.13;24.37;;;6.90;99.90;;;;;;4983934;28;20306;-77
2021/04/10 06:02:16;;;;;;;31.13;23.00;;;7.00;99.90;;;;;;4976234;28;20184;-78
2021/04/10 06:04:41;;;;;;;32.20;25.50;;;7.00;99.90;;;;;;4975905;28;20190;-79
2021/04/10 06:07:07;;;;;;;33.80;25.17;;;7.10;99.90;;;;;;4975980;28;20219;-79
2021/04/10 06:09:32;;;;;;;31.83;25.10;;;7.10;99.90;;;;;;4976198;28;20637;-78
2021/04/10 06:11:58;;;;;;;32.63;24.43;;;7.10;99.90;;;;;;4976048;28;20212;-78
2021/04/10 06:14:24;;;;;;;30.30;23.20;;;7.20;99.90;;;;;;4975916;28;20184;-78
2021/04/10 06:16:50;;;;;;;34.03;25.10;;;7.30;99.90;;;;;;4975497;28;20204;-78
2021/04/10 06:19:17;;;;;;;27.20;24.23;;;7.40;99.90;;;;;;4975308;28;20210;-78
2021/04/10 06:21:43;;;;;;;31.00;25.23;;;7.50;99.90;;;;;;4974444;28;20192;-78
2021/04/10 06:24:12;;;;;;;31.88;24.98;;;7.50;99.90;;;;;;4974770;28;20187;-79
2021/04/10 06:26:39;;;;;;;27.98;21.35;;;7.50;99.90;;;;;;4974132;28;20208;-80
2021/04/10 06:29:04;;;;;;;28.17;22.20;;;7.60;99.90;;;;;;4975776;28;20664;-79
2021/04/10 06:31:30;;;;;;;30.03;23.40;;;7.70;99.90;;;;;;4974493;28;20220;-78
2021/04/10 06:33:56;;;;;;;29.47;24.00;;;7.70;99.90;;;;;;4975528;28;20222;-82
2021/04/10 06:36:24;;;;;;;28.40;23.67;;;7.80;99.90;;;;;;4978418;28;20222;-80
2021/04/10 06:38:50;;;;;;;31.33;22.67;;;7.90;99.90;;;;;;4994913;28;20211;-81
2021/04/10 06:41:15;;;;;;;26.03;20.60;;;7.90;99.90;;;;;;4994104;28;20186;-83
2021/04/10 06:43:43;;;;;;;27.20;21.17;;;7.90;99.90;;;;;;4995136;28;20548;-83
2021/04/10 06:46:10;;;;;;;26.58;22.17;;;8.00;99.90;;;;;;4994507;28;20195;-82
2021/04/10 06:48:39;;;;;;;25.15;19.90;;;8.10;99.90;;;;;;4993484;28;20183;-80
2021/04/10 06:51:06;;;;;;;25.83;20.85;;;8.10;99.90;;;;;;4994740;28;20179;-81
2021/04/10 06:53:43;;;;;;;26.65;21.88;;;8.10;99.90;;;;;;4977193;28;20188;-79
2021/04/10 06:56:10;;;;;;;33.25;22.85;;;8.20;99.90;;;;;;4973906;28;20203;-81
2021/04/10 06:58:37;;;;;;;29.23;22.40;;;8.30;99.90;;;;;;4975315;28;20200;-81
2021/04/10 07:01:03;;;;;;;28.50;22.67;;;8.50;99.90;;;;;;4975491;28;20178;-80
2021/04/10 07:03:29;;;;;;;25.23;21.92;;;8.50;99.90;;;;;;4973981;28;20194;-81
2021/04/10 07:05:55;;;;;;;29.08;20.83;;;8.50;99.90;;;;;;4973626;28;20266;-82
2021/04/10 07:08:23;;;;;;;27.70;22.00;;;8.50;99.90;;;;;;4975018;28;20211;-81
2021/04/10 07:10:50;;;;;;;24.88;20.88;;;8.50;99.90;;;;;;4975194;28;20176;-82
2021/04/10 07:13:17;;;;;;;25.10;21.33;;;8.80;99.90;;;;;;4990717;28;20195;-79
2021/04/10 07:15:43;;;;;;;31.10;22.05;;;8.80;99.90;;;;;;4973848;28;20227;-79
2021/04/10 07:18:09;;;;;;;26.90;20.83;;;8.90;99.90;;;;;;4974828;28;20208;-79
2021/04/10 07:20:36;;;;;;;22.67;19.10;;;9.10;99.90;;;;;;4975223;28;20196;-79
2021/04/10 07:23:06;;;;;;;22.00;18.85;;;9.10;99.90;;;;;;4974759;28;20183;-80
2021/04/10 07:25:34;;;;;;;19.75;17.75;;;9.20;99.90;;;;;;4974521;28;20723;-82
2021/04/10 07:28:30;;;;;;;22.10;18.40;;;9.30;99.90;;;;;;4974939;28;20180;-81
2021/04/10 07:31:08;;;;;;;22.35;17.95;;;9.40;99.90;;;;;;4974304;28;20711;-83
2021/04/10 07:33:39;;;;;;;19.75;16.98;;;9.50;99.90;;;;;;4973233;28;20187;-82
2021/04/10 07:36:08;;;;;;;19.02;15.77;;;9.50;99.90;;;;;;4974540;28;20201;-84
2021/04/10 07:38:40;;;;;;;19.52;17.45;;;9.60;99.90;;;;;;4974371;28;20235;-81
2021/04/10 07:41:25;;;;;;;22.63;17.92;;;9.70;99.90;;;;;;4974837;28;20531;-82
2021/04/10 07:43:51;;;;;;;19.60;17.60;;;9.80;99.90;;;;;;4974105;28;20196;-80
2021/04/10 07:46:18;;;;;;;19.83;16.60;;;9.90;99.90;;;;;;4974071;28;20195;-82
2021/04/10 07:49:00;;;;;;;17.48;15.68;;;10.00;99.90;;;;;;4974302;28;20187;-83
2021/04/10 07:51:27;;;;;;;17.13;14.48;;;10.10;99.90;;;;;;4973098;28;20184;-80
2021/04/10 07:53:54;;;;;;;16.75;14.95;;;10.10;99.90;;;;;;4974326;28;20238;-81
2021/04/10 07:56:20;;;;;;;19.85;15.95;;;10.20;99.90;;;;;;4972510;28;20211;-82
2021/04/10 07:58:45;;;;;;;17.00;14.43;;;10.30;99.90;;;;;;4972877;28;20212;-80
2021/04/10 08:01:12;;;;;;;18.70;14.00;;;10.50;99.90;;;;;;4974305;28;20187;-81
2021/04/10 08:03:42;;;;;;;15.43;13.93;;;10.50;99.90;;;;;;4973105;28;20191;-81
2021/04/10 08:06:08;;;;;;;15.27;13.68;;;10.60;99.90;;;;;;4973553;28;20459;-82
2021/04/10 08:08:53;;;;;;;16.27;13.17;;;10.80;99.90;;;;;;4974071;28;20182;-84
2021/04/10 08:11:32;;;;;;;12.77;11.50;;;10.80;99.90;;;;;;4972858;28;20270;-84
2021/04/10 08:14:03;;;;;;;21.67;11.30;;;10.90;99.90;;;;;;4974288;28;20422;-83
2021/04/10 08:16:28;;;;;;;12.13;10.87;;;10.90;99.90;;;;;;4972526;28;20443;-81
2021/04/10 08:18:57;;;;;;;12.33;10.30;;;10.90;99.90;;;;;;4974023;28;20468;-82
2021/04/10 08:21:49;;;;;;;11.57;10.37;;;11.00;99.90;;;;;;4974040;28;20414;-82
2021/04/10 08:24:21;;;;;;;12.10;10.83;;;10.90;99.90;;;;;;4974061;28;20751;-81
2021/04/10 08:27:06;;;;;;;13.00;11.60;;;11.10;99.90;;;;;;4972213;28;20447;-83
2021/04/10 08:29:32;;;;;;;12.17;10.30;;;11.30;99.90;;;;;;4974202;28;20407;-82
2021/04/10 08:31:59;;;;;;;11.37;9.97;;;11.20;99.90;;;;;;4972747;28;21072;-84
2021/04/10 08:34:28;;;;;;;11.80;9.17;;;11.20;99.90;;;;;;4973894;28;20423;-84
2021/04/10 08:36:59;;;;;;;11.83;9.87;;;11.30;99.90;;;;;;4973679;28;20428;-84
2021/04/10 08:39:42;;;;;;;11.50;10.30;;;11.30;99.90;;;;;;4973930;28;20462;-83
2021/04/10 08:42:11;;;;;;;10.37;9.37;;;11.40;99.90;;;;;;4974044;28;20387;-84
2021/04/10 08:44:39;;;;;;;8.93;7.90;;;11.40;99.90;;;;;;4977154;28;20422;-83
2021/04/10 08:47:04;;;;;;;9.83;8.43;;;11.40;99.90;;;;;;4977307;28;20439;-82
2021/04/10 08:49:37;;;;;;;9.00;8.10;;;11.60;99.90;;;;;;4977571;28;20884;-81
2021/04/10 08:52:12;;;;;;;8.97;8.17;;;11.60;99.90;;;;;;4977562;28;20396;-82
2021/04/10 08:54:40;;;;;;;8.63;7.73;;;11.40;99.90;;;;;;4977139;28;20560;-84
2021/04/10 08:57:11;;;;;;;9.10;8.20;;;11.50;99.90;;;;;;4977201;28;20519;-83
2021/04/10 08:59:55;;;;;;;8.93;7.50;;;11.60;99.90;;;;;;4975979;28;21021;-83
2021/04/10 09:02:23;;;;;;;10.20;7.40;;;11.70;99.90;;;;;;4977508;28;20510;-82
2021/04/10 09:04:56;;;;;;;8.60;7.60;;;11.70;99.90;;;;;;4976893;28;20415;-82
2021/04/10 09:07:44;;;;;;;12.02;8.20;;;11.60;99.90;;;;;;4977030;28;20529;-84
2021/04/10 09:10:10;;;;;;;9.13;8.23;;;11.60;99.90;;;;;;4977108;28;20176;-85
2021/04/10 09:12:36;;;;;;;8.57;7.07;;;11.80;99.90;;;;;;4975914;28;20419;-82
2021/04/10 09:15:08;;;;;;;9.60;8.70;;;11.90;99.90;;;;;;4976574;28;20426;-85
2021/04/10 09:17:54;;;;;;;8.70;7.80;;;12.10;99.90;;;;;;4976971;28;20187;-85
2021/04/10 09:20:42;;;;;;;9.17;8.27;;;12.20;99.90;;;;;;4977162;28;20413;-85
2021/04/10 09:23:09;;;;;;;7.90;7.10;;;12.30;99.90;;;;;;4976877;28;20416;-82
2021/04/10 09:25:35;;;;;;;8.30;7.20;;;12.30;99.90;;;;;;4976561;28;20560;-84
2021/04/10 09:28:05;;;;;;;7.80;7.00;;;12.50;99.90;;;;;;4975706;28;20494;-82
2021/04/10 09:30:40;;;;;;;8.40;7.57;;;12.40;99.90;;;;;;4976879;28;20187;-83
2021/04/10 09:33:28;;;;;;;6.90;6.27;;;12.40;99.90;;;;;;4976717;28;20451;-83
2021/04/10 09:35:54;;;;;;;7.23;6.53;;;12.30;99.90;;;;;;4972992;28;20451;-83
2021/04/10 09:38:39;;;;;;;8.73;7.90;;;12.30;99.90;;;;;;4976635;28;20482;-82
2021/04/10 09:41:04;;;;;;;7.93;6.90;;;12.30;99.90;;;;;;4976525;28;20407;-78
2021/04/10 09:43:30;;;;;;;8.83;6.73;;;12.30;99.90;;;;;;4976707;28;20420;-80
2021/04/10 09:45:56;;;;;;;8.40;6.77;;;12.30;99.90;;;;;;4974959;28;20530;-81
2021/04/10 09:48:23;;;;;;;6.70;6.20;;;12.50;99.90;;;;;;4981070;28;20829;-80
2021/04/10 09:50:52;;;;;;;8.67;7.33;;;12.70;99.90;;;;;;4993515;28;20608;-83
2021/04/10 09:53:22;;;;;;;8.77;7.40;;;12.80;99.90;;;;;;4994146;28;20871;-83
2021/04/10 09:55:50;;;;;;;8.80;8.00;;;12.60;99.90;;;;;;4991651;28;20445;-82
2021/04/10 09:58:17;;;;;;;8.70;7.40;;;12.70;99.90;;;;;;4993767;28;20458;-83
2021/04/10 10:00:47;;;;;;;8.90;7.83;;;12.60;99.90;;;;;;4994191;28;20423;-81
2021/04/10 10:03:15;;;;;;;8.63;7.23;;;12.50;99.90;;;;;;4992138;28;20454;-81
2021/04/10 10:05:44;;;;;;;8.77;7.53;;;12.40;99.90;;;;;;4993598;28;20469;-81
2021/04/10 10:08:12;;;;;;;8.93;7.90;;;12.40;99.90;;;;;;4992644;28;20434;-80
2021/04/10 10:10:43;;;;;;;9.97;8.93;;;12.30;99.90;;;;;;4993471;28;20426;-79
2021/04/10 10:13:20;;;;;;;9.33;8.27;;;12.20;99.90;;;;;;4992556;28;20449;-81
2021/04/10 10:15:48;;;;;;;9.90;8.90;;;12.40;99.90;;;;;;4992507;28;20447;-79
2021/04/10 10:18:15;;;;;;;11.60;9.20;;;12.30;99.90;;;;;;4993037;28;20462;-80
2021/04/10 10:20:52;;;;;;;12.50;9.20;;;12.30;99.90;;;;;;4993739;28;20790;-81
2021/04/10 10:23:18;;;;;;;11.57;9.90;;;12.10;99.90;;;;;;4993954;28;20492;-81
2021/04/10 10:25:44;;;;;;;10.60;9.50;;;12.00;99.90;;;;;;4991519;28;20442;-79
2021/04/10 10:28:17;;;;;;;12.50;8.37;;;12.10;99.90;;;;;;4993348;28;20430;-80
2021/04/10 10:30:44;;;;;;;13.10;8.47;;;12.00;99.90;;;;;;4992097;28;20473;-80
2021/04/10 10:33:10;;;;;;;9.90;8.93;;;12.00;99.90;;;;;;4991857;28;20517;-78
2021/04/10 10:35:35;;;;;;;9.30;8.40;;;11.80;99.90;;;;;;4992957;28;20543;-80
2021/04/10 10:38:07;;;;;;;10.13;9.13;;;11.80;99.90;;;;;;4993415;28;21192;-81
2021/04/10 10:40:34;;;;;;;11.05;9.65;;;11.80;99.90;;;;;;4987057;28;20821;-80
2021/04/10 10:43:04;;;;;;;17.00;10.77;;;11.70;99.90;;;;;;4991208;28;20616;-80
2021/04/10 10:45:41;;;;;;;11.33;10.13;;;11.70;99.90;;;;;;4990699;28;20450;-80
2021/04/10 10:48:24;;;;;;;27.73;15.10;;;11.70;99.90;;;;;;4986086;28;20418;-80
2021/04/10 10:51:11;;;;;;;21.17;12.53;;;11.70;99.90;;;;;;4991115;28;20950;-78
2021/04/10 10:53:45;;;;;;;20.83;14.10;;;11.60;99.90;;;;;;4993228;28;20429;-81
2021/04/10 10:56:10;;;;;;;24.65;15.93;;;11.60;99.90;;;;;;4992144;28;20458;-78
2021/04/10 10:58:37;;;;;;;16.17;14.40;;;11.60;99.90;;;;;;4993301;28;20277;-78
2021/04/10 11:01:29;;;;;;;17.97;16.17;;;11.50;99.90;;;;;;4992754;28;20262;-78
2021/04/10 11:04:00;;;;;;;19.63;16.53;;;11.50;99.90;;;;;;4989628;28;20414;-79
2021/04/10 11:06:29;;;;;;;18.33;16.13;;;11.40;99.90;;;;;;4991385;28;20474;-78
2021/04/10 11:08:55;;;;;;;19.27;17.23;;;11.40;99.90;;;;;;4992644;28;20198;-81
2021/04/10 11:11:35;;;;;;;17.77;15.70;;;11.50;99.90;;;;;;4992360;28;20187;-78
2021/04/10 11:14:01;;;;;;;22.53;17.67;;;11.60;99.90;;;;;;4992461;28;20430;-80
2021/04/10 11:16:27;;;;;;;18.40;16.50;;;11.60;99.90;;;;;;4991054;28;20541;-78
2021/04/10 11:18:55;;;;;;;20.40;18.20;;;11.40;99.90;;;;;;4991663;28;20287;-77
2021/04/10 11:21:27;;;;;;;20.87;18.47;;;11.60;99.90;;;;;;4992958;28;20191;-77
2021/04/10 11:24:03;;;;;;;18.63;16.67;;;11.60;99.90;;;;;;4992402;28;20418;-77
2021/04/10 11:26:32;;;;;;;17.85;16.08;;;11.70;99.90;;;;;;4991770;28;20409;-79
2021/04/10 11:29:31;;;;;;;16.42;14.73;;;11.70;99.90;;;;;;4991483;28;20584;-77
2021/04/10 11:32:44;;;;;;;16.90;15.18;;;11.70;99.90;;;;;;4990498;28;20555;-77
2021/04/10 11:35:20;;;;;;;16.17;14.10;;;11.70;99.90;;;;;;4982301;28;20262;-79
2021/04/10 11:37:54;;;;;;;18.73;16.60;;;11.80;99.90;;;;;;4992682;28;20430;-77
2021/04/10 11:40:28;;;;;;;24.00;21.60;;;11.90;99.90;;;;;;4989163;28;20921;-77
2021/04/10 11:43:05;;;;;;;22.93;20.10;;;11.80;99.90;;;;;;4992496;28;20422;-77
2021/04/10 11:45:43;;;;;;;24.43;18.60;;;11.90;99.90;;;;;;4992215;28;20435;-78
2021/04/10 11:48:11;;;;;;;19.37;17.03;;;12.00;99.90;;;;;;4991210;28;20449;-77
2021/04/10 11:50:40;;;;;;;16.95;15.07;;;11.80;99.90;;;;;;4991578;28;20446;-78
2021/04/10 11:53:41;;;;;;;16.03;14.37;;;11.70;99.90;;;;;;4991498;28;20195;-77
2021/04/10 11:56:30;;;;;;;15.67;14.10;;;11.60;99.90;;;;;;4969378;28;20455;-77
2021/04/10 11:59:01;;;;;;;17.10;14.30;;;11.60;99.90;;;;;;4989175;28;20967;-76
2021/04/10 12:01:27;;;;;;;20.13;15.60;;;11.70;99.90;;;;;;4991240;28;20191;-75
2021/04/10 12:04:00;;;;;;;19.47;14.77;;;11.50;99.90;;;;;;4990897;28;20245;-77
2021/04/10 12:06:29;;;;;;;20.85;17.00;;;11.30;99.90;;;;;;4991082;28;20454;-76
2021/04/10 12:09:15;;;;;;;23.63;18.07;;;11.30;99.90;;;;;;4990448;28;20191;-77
2021/04/10 12:11:43;;;;;;;21.83;17.92;;;11.40;99.90;;;;;;4991825;28;20533;-77
2021/04/10 12:14:13;;;;;;;21.45;16.02;;;11.50;99.90;;;;;;4991972;28;20223;-78
2021/04/10 12:16:40;;;;;;;24.95;18.95;;;11.40;99.90;;;;;;4990010;28;20257;-77
2021/04/10 12:19:07;;;;;;;23.17;18.95;;;11.30;99.90;;;;;;4993611;28;20199;-76
2021/04/10 12:21:34;;;;;;;20.50;16.73;;;11.20;99.90;;;;;;4996135;28;20187;-77
2021/04/10 12:24:00;;;;;;;22.52;18.55;;;11.00;99.90;;;;;;4994038;28;20581;-79
2021/04/10 12:26:26;;;;;;;23.52;19.58;;;10.80;99.90;;;;;;4995155;28;20736;-77
2021/04/10 12:28:51;;;;;;;24.33;18.37;;;10.80;99.90;;;;;;4995672;28;20184;-77
2021/04/10 12:31:17;;;;;;;24.63;19.03;;;10.60;99.90;;;;;;4994713;28;20190;-77
2021/04/10 12:33:44;;;;;;;24.23;19.10;;;10.60;99.90;;;;;;4995513;28;20183;-75
2021/04/10 12:36:10;;;;;;;25.83;19.98;;;10.50;99.90;;;;;;4994897;28;20581;-75
2021/04/10 12:38:36;;;;;;;24.27;19.80;;;10.40;99.90;;;;;;4991525;28;20777;-76
2021/04/10 12:41:03;;;;;;;24.55;20.75;;;10.40;99.90;;;;;;4995436;28;20269;-75
2021/04/10 12:43:29;;;;;;;24.65;20.33;;;10.40;99.90;;;;;;4977427;28;20192;-75
2021/04/10 12:45:54;;;;;;;28.43;22.30;;;10.60;99.90;;;;;;4977224;28;20199;-76